sensor_id;sensor_type;location;lat;lon;timestamp;temperature;humidity
578;DHT22;275;48.492;9.214;2023-07-08T00:01:59;26.60;12.30
578;DHT22;275;48.492;9.214;2023-07-08T00:04:26;26.40;12.70
578;DHT22;275;48.492;9.214;2023-07-08T00:06:53;26.30;12.50
578;DHT22;275;48.492;9.214;2023-07-08T00:09:21;26.40;12.40
578;DHT22;275;48.492;9.214;2023-07-08T00:11:49;26.60;12.10
578;DHT22;275;48.492;9.214;2023-07-08T00:14:15;26.50;12.10
578;DHT22;275;48.492;9.214;2023-07-08T00:16:42;26.50;12.30
578;DHT22;275;48.492;9.214;2023-07-08T00:19:10;26.40;12.30
578;DHT22;275;48.492;9.214;2023-07-08T00:21:36;26.40;12.40
578;DHT22;275;48.492;9.214;2023-07-08T00:24:04;26.50;12.20
578;DHT22;275;48.492;9.214;2023-07-08T00:26:32;26.80;12.10
578;DHT22;275;48.492;9.214;2023-07-08T00:28:59;26.80;12.00
578;DHT22;275;48.492;9.214;2023-07-08T00:31:26;26.80;12.00
578;DHT22;275;48.492;9.214;2023-07-08T00:33:55;26.80;12.00
578;DHT22;275;48.492;9.214;2023-07-08T00:36:23;26.50;12.70
578;DHT22;275;48.492;9.214;2023-07-08T00:38:50;26.30;13.00
578;DHT22;275;48.492;9.214;2023-07-08T00:41:20;26.30;13.10
578;DHT22;275;48.492;9.214;2023-07-08T00:43:50;26.40;12.80
578;DHT22;275;48.492;9.214;2023-07-08T00:46:37;26.70;12.60
578;DHT22;275;48.492;9.214;2023-07-08T00:49:21;26.50;12.80
578;DHT22;275;48.492;9.214;2023-07-08T00:51:50;26.50;13.10
578;DHT22;275;48.492;9.214;2023-07-08T00:54:18;26.30;13.60
578;DHT22;275;48.492;9.214;2023-07-08T00:56:48;26.10;13.60
578;DHT22;275;48.492;9.214;2023-07-08T00:59:20;26.10;13.50
578;DHT22;275;48.492;9.214;2023-07-08T01:01:48;26.40;13.30
578;DHT22;275;48.492;9.214;2023-07-08T01:04:18;26.10;13.90
578;DHT22;275;48.492;9.214;2023-07-08T01:06:49;25.60;14.20
578;DHT22;275;48.492;9.214;2023-07-08T01:09:25;25.40;14.50
578;DHT22;275;48.492;9.214;2023-07-08T01:11:53;25.60;14.30
578;DHT22;275;48.492;9.214;2023-07-08T01:14:22;25.70;14.00
578;DHT22;275;48.492;9.214;2023-07-08T01:16:52;25.60;14.40
578;DHT22;275;48.492;9.214;2023-07-08T01:19:21;25.70;14.30
578;DHT22;275;48.492;9.214;2023-07-08T01:22:02;25.80;14.20
578;DHT22;275;48.492;9.214;2023-07-08T01:24:30;25.60;14.50
578;DHT22;275;48.492;9.214;2023-07-08T01:26:58;25.60;14.60
578;DHT22;275;48.492;9.214;2023-07-08T01:29:26;25.70;14.40
578;DHT22;275;48.492;9.214;2023-07-08T01:31:54;25.70;14.30
578;DHT22;275;48.492;9.214;2023-07-08T01:34:21;25.60;14.50
578;DHT22;275;48.492;9.214;2023-07-08T01:36:51;25.50;14.70
578;DHT22;275;48.492;9.214;2023-07-08T01:39:22;25.60;14.60
578;DHT22;275;48.492;9.214;2023-07-08T01:41:50;25.60;14.80
578;DHT22;275;48.492;9.214;2023-07-08T01:44:22;25.40;15.10
578;DHT22;275;48.492;9.214;2023-07-08T01:46:50;25.30;15.30
578;DHT22;275;48.492;9.214;2023-07-08T01:49:18;25.30;15.00
578;DHT22;275;48.492;9.214;2023-07-08T01:51:46;24.80;15.80
578;DHT22;275;48.492;9.214;2023-07-08T01:54:14;25.10;15.50
578;DHT22;275;48.492;9.214;2023-07-08T01:56:42;25.40;15.20
578;DHT22;275;48.492;9.214;2023-07-08T01:59:09;25.30;15.30
578;DHT22;275;48.492;9.214;2023-07-08T02:01:35;25.20;15.70
578;DHT22;275;48.492;9.214;2023-07-08T02:04:03;25.10;15.70
578;DHT22;275;48.492;9.214;2023-07-08T02:06:29;25.10;15.90
578;DHT22;275;48.492;9.214;2023-07-08T02:08:56;25.40;15.40
578;DHT22;275;48.492;9.214;2023-07-08T02:11:24;25.70;15.70
578;DHT22;275;48.492;9.214;2023-07-08T02:13:52;25.50;15.20
578;DHT22;275;48.492;9.214;2023-07-08T02:16:19;25.60;15.20
578;DHT22;275;48.492;9.214;2023-07-08T02:18:46;25.40;15.40
578;DHT22;275;48.492;9.214;2023-07-08T02:21:13;25.30;15.60
578;DHT22;275;48.492;9.214;2023-07-08T02:23:48;25.30;15.60
578;DHT22;275;48.492;9.214;2023-07-08T02:26:15;24.80;16.40
578;DHT22;275;48.492;9.214;2023-07-08T02:28:42;24.50;16.80
578;DHT22;275;48.492;9.214;2023-07-08T02:31:10;24.40;16.60
578;DHT22;275;48.492;9.214;2023-07-08T02:33:37;24.10;17.40
578;DHT22;275;48.492;9.214;2023-07-08T02:36:04;24.40;16.80
578;DHT22;275;48.492;9.214;2023-07-08T02:38:31;24.90;16.50
578;DHT22;275;48.492;9.214;2023-07-08T02:40:59;24.80;16.40
578;DHT22;275;48.492;9.214;2023-07-08T02:43:26;25.00;16.20
578;DHT22;275;48.492;9.214;2023-07-08T02:45:53;24.80;16.50
578;DHT22;275;48.492;9.214;2023-07-08T02:48:21;24.40;17.20
578;DHT22;275;48.492;9.214;2023-07-08T02:51:00;24.30;17.30
578;DHT22;275;48.492;9.214;2023-07-08T02:53:27;24.70;16.90
578;DHT22;275;48.492;9.214;2023-07-08T02:55:54;24.90;16.60
578;DHT22;275;48.492;9.214;2023-07-08T02:58:21;25.20;16.40
578;DHT22;275;48.492;9.214;2023-07-08T03:00:51;25.30;16.20
578;DHT22;275;48.492;9.214;2023-07-08T03:03:18;25.60;15.80
578;DHT22;275;48.492;9.214;2023-07-08T03:05:55;25.30;16.30
578;DHT22;275;48.492;9.214;2023-07-08T03:08:22;25.50;16.00
578;DHT22;275;48.492;9.214;2023-07-08T03:10:54;25.60;15.90
578;DHT22;275;48.492;9.214;2023-07-08T03:13:21;25.70;16.00
578;DHT22;275;48.492;9.214;2023-07-08T03:15:48;25.60;16.20
578;DHT22;275;48.492;9.214;2023-07-08T03:18:15;25.60;16.30
578;DHT22;275;48.492;9.214;2023-07-08T03:20:42;25.60;16.20
578;DHT22;275;48.492;9.214;2023-07-08T03:23:11;25.70;16.20
578;DHT22;275;48.492;9.214;2023-07-08T03:25:39;25.60;16.30
578;DHT22;275;48.492;9.214;2023-07-08T03:28:06;25.30;16.80
578;DHT22;275;48.492;9.214;2023-07-08T03:30:39;25.30;16.80
578;DHT22;275;48.492;9.214;2023-07-08T03:33:06;25.20;16.90
578;DHT22;275;48.492;9.214;2023-07-08T03:35:33;25.30;16.80
578;DHT22;275;48.492;9.214;2023-07-08T03:38:00;25.40;16.80
578;DHT22;275;48.492;9.214;2023-07-08T03:40:29;25.60;16.60
578;DHT22;275;48.492;9.214;2023-07-08T03:42:56;25.80;16.50
578;DHT22;275;48.492;9.214;2023-07-08T03:45:23;25.60;16.70
578;DHT22;275;48.492;9.214;2023-07-08T03:47:49;25.00;17.50
578;DHT22;275;48.492;9.214;2023-07-08T03:50:20;24.70;17.90
578;DHT22;275;48.492;9.214;2023-07-08T03:52:48;25.00;17.50
578;DHT22;275;48.492;9.214;2023-07-08T03:55:15;25.40;17.00
578;DHT22;275;48.492;9.214;2023-07-08T03:57:43;25.50;17.00
578;DHT22;275;48.492;9.214;2023-07-08T04:00:11;25.60;17.00
578;DHT22;275;48.492;9.214;2023-07-08T04:02:38;25.70;16.90
578;DHT22;275;48.492;9.214;2023-07-08T04:05:06;25.80;16.80
578;DHT22;275;48.492;9.214;2023-07-08T04:07:33;25.80;16.90
578;DHT22;275;48.492;9.214;2023-07-08T04:10:00;26.10;16.70
578;DHT22;275;48.492;9.214;2023-07-08T04:12:27;26.20;16.70
578;DHT22;275;48.492;9.214;2023-07-08T04:14:55;26.10;16.80
578;DHT22;275;48.492;9.214;2023-07-08T04:17:22;26.40;16.40
578;DHT22;275;48.492;9.214;2023-07-08T04:19:49;26.90;15.90
578;DHT22;275;48.492;9.214;2023-07-08T04:22:16;27.50;15.30
578;DHT22;275;48.492;9.214;2023-07-08T04:24:43;28.00;14.50
578;DHT22;275;48.492;9.214;2023-07-08T04:27:13;28.50;14.10
578;DHT22;275;48.492;9.214;2023-07-08T04:29:41;29.10;13.70
578;DHT22;275;48.492;9.214;2023-07-08T04:32:10;29.00;13.80
578;DHT22;275;48.492;9.214;2023-07-08T04:34:37;29.00;13.70
578;DHT22;275;48.492;9.214;2023-07-08T04:37:04;29.00;13.60
578;DHT22;275;48.492;9.214;2023-07-08T04:39:31;28.80;13.90
578;DHT22;275;48.492;9.214;2023-07-08T04:41:58;28.80;14.00
578;DHT22;275;48.492;9.214;2023-07-08T04:44:25;28.90;14.30
578;DHT22;275;48.492;9.214;2023-07-08T04:46:54;28.30;15.00
578;DHT22;275;48.492;9.214;2023-07-08T04:49:24;28.30;15.60
578;DHT22;275;48.492;9.214;2023-07-08T04:51:57;28.30;16.70
578;DHT22;275;48.492;9.214;2023-07-08T04:54:24;28.30;17.00
578;DHT22;275;48.492;9.214;2023-07-08T04:56:51;28.50;16.50
578;DHT22;275;48.492;9.214;2023-07-08T04:59:22;29.20;15.70
578;DHT22;275;48.492;9.214;2023-07-08T05:01:49;29.20;15.80
578;DHT22;275;48.492;9.214;2023-07-08T05:04:19;28.50;16.40
578;DHT22;275;48.492;9.214;2023-07-08T05:06:48;27.60;17.60
578;DHT22;275;48.492;9.214;2023-07-08T05:09:15;27.10;17.80
578;DHT22;275;48.492;9.214;2023-07-08T05:11:42;26.90;18.30
578;DHT22;275;48.492;9.214;2023-07-08T05:14:11;26.70;18.20
578;DHT22;275;48.492;9.214;2023-07-08T05:16:38;26.60;19.10
578;DHT22;275;48.492;9.214;2023-07-08T05:19:06;26.60;18.60
578;DHT22;275;48.492;9.214;2023-07-08T05:21:33;26.60;18.70
578;DHT22;275;48.492;9.214;2023-07-08T05:24:02;26.30;19.10
578;DHT22;275;48.492;9.214;2023-07-08T05:26:29;26.10;19.50
578;DHT22;275;48.492;9.214;2023-07-08T05:28:56;26.00;19.80
578;DHT22;275;48.492;9.214;2023-07-08T05:31:23;26.40;19.40
578;DHT22;275;48.492;9.214;2023-07-08T05:33:50;27.00;18.70
578;DHT22;275;48.492;9.214;2023-07-08T05:36:17;27.50;18.40
578;DHT22;275;48.492;9.214;2023-07-08T05:38:44;26.80;19.10
578;DHT22;275;48.492;9.214;2023-07-08T05:41:12;27.00;18.90
578;DHT22;275;48.492;9.214;2023-07-08T05:43:39;27.50;18.30
578;DHT22;275;48.492;9.214;2023-07-08T05:46:06;27.30;18.30
578;DHT22;275;48.492;9.214;2023-07-08T05:48:32;27.10;18.60
578;DHT22;275;48.492;9.214;2023-07-08T05:50:59;27.30;18.50
578;DHT22;275;48.492;9.214;2023-07-08T05:53:26;27.20;18.60
578;DHT22;275;48.492;9.214;2023-07-08T05:55:53;26.80;18.80
578;DHT22;275;48.492;9.214;2023-07-08T05:58:21;26.80;19.10
578;DHT22;275;48.492;9.214;2023-07-08T06:00:55;26.90;18.90
578;DHT22;275;48.492;9.214;2023-07-08T06:03:22;27.10;19.20
578;DHT22;275;48.492;9.214;2023-07-08T06:05:49;26.80;19.40
578;DHT22;275;48.492;9.214;2023-07-08T06:08:16;26.70;19.40
578;DHT22;275;48.492;9.214;2023-07-08T06:10:43;26.30;19.60
578;DHT22;275;48.492;9.214;2023-07-08T06:13:10;26.10;19.90
578;DHT22;275;48.492;9.214;2023-07-08T06:15:39;26.20;19.80
578;DHT22;275;48.492;9.214;2023-07-08T06:18:06;26.20;19.80
578;DHT22;275;48.492;9.214;2023-07-08T06:20:33;26.50;19.60
578;DHT22;275;48.492;9.214;2023-07-08T06:23:00;26.60;19.70
578;DHT22;275;48.492;9.214;2023-07-08T06:25:27;27.00;18.70
578;DHT22;275;48.492;9.214;2023-07-08T06:27:54;27.30;18.50
578;DHT22;275;48.492;9.214;2023-07-08T06:30:21;27.70;18.00
578;DHT22;275;48.492;9.214;2023-07-08T06:32:49;27.60;18.10
578;DHT22;275;48.492;9.214;2023-07-08T06:35:16;27.70;17.90
578;DHT22;275;48.492;9.214;2023-07-08T06:37:43;27.70;18.10
578;DHT22;275;48.492;9.214;2023-07-08T06:40:11;27.40;18.40
578;DHT22;275;48.492;9.214;2023-07-08T06:42:38;27.80;18.10
578;DHT22;275;48.492;9.214;2023-07-08T06:45:05;27.90;17.80
578;DHT22;275;48.492;9.214;2023-07-08T06:47:32;28.20;17.40
578;DHT22;275;48.492;9.214;2023-07-08T06:50:00;28.20;17.50
578;DHT22;275;48.492;9.214;2023-07-08T06:52:27;28.30;17.60
578;DHT22;275;48.492;9.214;2023-07-08T06:54:59;28.50;17.70
578;DHT22;275;48.492;9.214;2023-07-08T06:57:26;28.00;18.20
578;DHT22;275;48.492;9.214;2023-07-08T06:59:53;27.80;18.60
578;DHT22;275;48.492;9.214;2023-07-08T07:02:20;27.90;18.50
578;DHT22;275;48.492;9.214;2023-07-08T07:04:47;27.80;18.70
578;DHT22;275;48.492;9.214;2023-07-08T07:07:15;27.60;19.50
578;DHT22;275;48.492;9.214;2023-07-08T07:09:42;27.80;19.20
578;DHT22;275;48.492;9.214;2023-07-08T07:12:09;27.90;19.10
578;DHT22;275;48.492;9.214;2023-07-08T07:14:36;27.70;20.00
578;DHT22;275;48.492;9.214;2023-07-08T07:17:03;28.00;19.40
578;DHT22;275;48.492;9.214;2023-07-08T07:19:30;28.80;18.50
578;DHT22;275;48.492;9.214;2023-07-08T07:21:56;29.00;18.10
578;DHT22;275;48.492;9.214;2023-07-08T07:24:24;28.70;18.40
578;DHT22;275;48.492;9.214;2023-07-08T07:26:51;29.00;18.30
578;DHT22;275;48.492;9.214;2023-07-08T07:29:18;28.40;18.70
578;DHT22;275;48.492;9.214;2023-07-08T07:31:47;27.40;19.80
578;DHT22;275;48.492;9.214;2023-07-08T07:34:14;27.70;20.00
578;DHT22;275;48.492;9.214;2023-07-08T07:36:40;28.50;19.20
578;DHT22;275;48.492;9.214;2023-07-08T07:39:07;29.20;18.10
578;DHT22;275;48.492;9.214;2023-07-08T07:41:35;29.60;17.80
578;DHT22;275;48.492;9.214;2023-07-08T07:44:02;29.70;18.10
578;DHT22;275;48.492;9.214;2023-07-08T07:46:29;30.10;17.20
578;DHT22;275;48.492;9.214;2023-07-08T07:48:56;29.80;17.20
578;DHT22;275;48.492;9.214;2023-07-08T07:51:23;28.90;18.80
578;DHT22;275;48.492;9.214;2023-07-08T07:53:50;28.90;19.00
578;DHT22;275;48.492;9.214;2023-07-08T07:56:16;29.40;18.50
578;DHT22;275;48.492;9.214;2023-07-08T07:58:45;29.50;18.10
578;DHT22;275;48.492;9.214;2023-07-08T08:01:11;29.90;17.50
578;DHT22;275;48.492;9.214;2023-07-08T08:03:39;30.00;17.30
578;DHT22;275;48.492;9.214;2023-07-08T08:06:06;29.60;18.10
578;DHT22;275;48.492;9.214;2023-07-08T08:08:33;29.80;18.00
578;DHT22;275;48.492;9.214;2023-07-08T08:11:00;30.30;17.40
578;DHT22;275;48.492;9.214;2023-07-08T08:13:27;30.50;17.30
578;DHT22;275;48.492;9.214;2023-07-08T08:15:57;31.10;16.30
578;DHT22;275;48.492;9.214;2023-07-08T08:18:25;32.10;15.50
578;DHT22;275;48.492;9.214;2023-07-08T08:20:52;31.80;16.00
578;DHT22;275;48.492;9.214;2023-07-08T08:23:19;31.40;16.10
578;DHT22;275;48.492;9.214;2023-07-08T08:25:45;31.20;16.10
578;DHT22;275;48.492;9.214;2023-07-08T08:28:12;31.10;16.20
578;DHT22;275;48.492;9.214;2023-07-08T08:30:39;30.90;16.40
578;DHT22;275;48.492;9.214;2023-07-08T08:33:07;30.40;16.80
578;DHT22;275;48.492;9.214;2023-07-08T08:35:34;30.20;17.30
578;DHT22;275;48.492;9.214;2023-07-08T08:38:02;29.80;18.10
578;DHT22;275;48.492;9.214;2023-07-08T08:40:31;29.80;18.00
578;DHT22;275;48.492;9.214;2023-07-08T08:43:01;29.80;18.10
578;DHT22;275;48.492;9.214;2023-07-08T08:45:32;29.20;18.90
578;DHT22;275;48.492;9.214;2023-07-08T08:48:03;29.00;19.40
578;DHT22;275;48.492;9.214;2023-07-08T08:50:36;29.40;19.40
578;DHT22;275;48.492;9.214;2023-07-08T08:53:12;29.60;19.00
578;DHT22;275;48.492;9.214;2023-07-08T08:55:40;29.30;19.00
578;DHT22;275;48.492;9.214;2023-07-08T08:58:15;29.50;18.60
578;DHT22;275;48.492;9.214;2023-07-08T09:00:53;29.60;18.70
578;DHT22;275;48.492;9.214;2023-07-08T09:03:31;29.60;18.50
578;DHT22;275;48.492;9.214;2023-07-08T09:06:10;29.70;18.10
578;DHT22;275;48.492;9.214;2023-07-08T09:08:37;29.50;18.20
578;DHT22;275;48.492;9.214;2023-07-08T09:11:21;29.30;18.30
578;DHT22;275;48.492;9.214;2023-07-08T09:13:51;29.40;18.50
578;DHT22;275;48.492;9.214;2023-07-08T09:16:30;29.40;18.50
578;DHT22;275;48.492;9.214;2023-07-08T09:19:03;29.10;18.90
578;DHT22;275;48.492;9.214;2023-07-08T09:21:37;29.10;19.00
578;DHT22;275;48.492;9.214;2023-07-08T09:24:10;28.60;20.10
578;DHT22;275;48.492;9.214;2023-07-08T09:26:40;27.70;21.60
578;DHT22;275;48.492;9.214;2023-07-08T09:29:09;27.90;21.20
578;DHT22;275;48.492;9.214;2023-07-08T09:31:38;28.30;20.40
578;DHT22;275;48.492;9.214;2023-07-08T09:34:08;29.00;19.70
578;DHT22;275;48.492;9.214;2023-07-08T09:36:39;28.60;20.10
578;DHT22;275;48.492;9.214;2023-07-08T09:39:10;29.00;19.80
578;DHT22;275;48.492;9.214;2023-07-08T09:41:38;29.30;19.70
578;DHT22;275;48.492;9.214;2023-07-08T09:44:14;28.60;20.40
578;DHT22;275;48.492;9.214;2023-07-08T09:46:41;28.40;20.70
578;DHT22;275;48.492;9.214;2023-07-08T09:49:22;28.40;20.60
578;DHT22;275;48.492;9.214;2023-07-08T09:51:51;29.20;20.10
578;DHT22;275;48.492;9.214;2023-07-08T09:54:19;29.60;19.20
578;DHT22;275;48.492;9.214;2023-07-08T09:56:57;29.40;19.10
578;DHT22;275;48.492;9.214;2023-07-08T09:59:30;29.00;19.90
578;DHT22;275;48.492;9.214;2023-07-08T10:02:00;29.20;19.60
578;DHT22;275;48.492;9.214;2023-07-08T10:04:28;29.50;19.80
578;DHT22;275;48.492;9.214;2023-07-08T10:06:56;30.80;18.50
578;DHT22;275;48.492;9.214;2023-07-08T10:09:24;31.80;17.10
578;DHT22;275;48.492;9.214;2023-07-08T10:11:55;32.20;17.00
578;DHT22;275;48.492;9.214;2023-07-08T10:14:26;32.30;16.70
578;DHT22;275;48.492;9.214;2023-07-08T10:16:53;32.90;16.30
578;DHT22;275;48.492;9.214;2023-07-08T10:19:21;34.60;14.70
578;DHT22;275;48.492;9.214;2023-07-08T10:21:55;35.10;13.90
578;DHT22;275;48.492;9.214;2023-07-08T10:24:37;34.30;14.40
578;DHT22;275;48.492;9.214;2023-07-08T10:27:15;36.60;12.70
578;DHT22;275;48.492;9.214;2023-07-08T10:30:02;38.00;10.80
578;DHT22;275;48.492;9.214;2023-07-08T10:32:52;36.10;12.10
578;DHT22;275;48.492;9.214;2023-07-08T10:35:24;35.70;12.40
578;DHT22;275;48.492;9.214;2023-07-08T10:38:03;36.40;11.70
578;DHT22;275;48.492;9.214;2023-07-08T10:40:48;40.30;8.50
578;DHT22;275;48.492;9.214;2023-07-08T10:46:16;40.50;7.10
578;DHT22;275;48.492;9.214;2023-07-08T10:48:59;42.50;5.40
578;DHT22;275;48.492;9.214;2023-07-08T10:51:33;41.30;6.40
578;DHT22;275;48.492;9.214;2023-07-08T10:54:30;41.70;6.10
578;DHT22;275;48.492;9.214;2023-07-08T10:57:10;43.60;4.70
578;DHT22;275;48.492;9.214;2023-07-08T10:59:44;44.30;4.30
578;DHT22;275;48.492;9.214;2023-07-08T11:02:31;43.80;4.50
578;DHT22;275;48.492;9.214;2023-07-08T11:05:10;43.30;4.60
578;DHT22;275;48.492;9.214;2023-07-08T11:07:44;45.20;3.50
578;DHT22;275;48.492;9.214;2023-07-08T11:10:16;45.40;3.30
578;DHT22;275;48.492;9.214;2023-07-08T11:12:49;46.40;2.70
578;DHT22;275;48.492;9.214;2023-07-08T11:15:22;45.90;3.20
578;DHT22;275;48.492;9.214;2023-07-08T11:17:57;46.00;2.80
578;DHT22;275;48.492;9.214;2023-07-08T11:20:31;44.90;3.60
578;DHT22;275;48.492;9.214;2023-07-08T11:23:05;43.70;4.40
578;DHT22;275;48.492;9.214;2023-07-08T11:25:35;41.50;6.00
578;DHT22;275;48.492;9.214;2023-07-08T11:28:05;41.70;5.70
578;DHT22;275;48.492;9.214;2023-07-08T11:30:34;41.90;5.50
578;DHT22;275;48.492;9.214;2023-07-08T11:33:11;42.80;4.90
578;DHT22;275;48.492;9.214;2023-07-08T11:35:42;42.80;4.80
578;DHT22;275;48.492;9.214;2023-07-08T11:40:51;45.70;2.90
578;DHT22;275;48.492;9.214;2023-07-08T11:43:20;46.60;2.40
578;DHT22;275;48.492;9.214;2023-07-08T11:45:49;47.00;1.70
578;DHT22;275;48.492;9.214;2023-07-08T11:48:20;46.00;2.50
578;DHT22;275;48.492;9.214;2023-07-08T11:50:49;44.90;3.00
578;DHT22;275;48.492;9.214;2023-07-08T11:53:34;45.30;2.70
578;DHT22;275;48.492;9.214;2023-07-08T11:56:02;45.90;2.20
578;DHT22;275;48.492;9.214;2023-07-08T11:58:32;46.80;1.60
578;DHT22;275;48.492;9.214;2023-07-08T12:01:23;45.80;2.40
578;DHT22;275;48.492;9.214;2023-07-08T12:03:53;46.30;2.00
578;DHT22;275;48.492;9.214;2023-07-08T12:06:43;46.00;1.80
578;DHT22;275;48.492;9.214;2023-07-08T12:09:20;44.90;2.70
578;DHT22;275;48.492;9.214;2023-07-08T12:11:53;45.50;2.50
578;DHT22;275;48.492;9.214;2023-07-08T12:14:23;46.50;1.80
578;DHT22;275;48.492;9.214;2023-07-08T12:16:50;47.10;1.20
578;DHT22;275;48.492;9.214;2023-07-08T12:19:19;44.70;2.40
578;DHT22;275;48.492;9.214;2023-07-08T12:21:46;40.30;5.90
578;DHT22;275;48.492;9.214;2023-07-08T12:24:14;40.20;6.30
578;DHT22;275;48.492;9.214;2023-07-08T12:26:42;41.50;6.00
578;DHT22;275;48.492;9.214;2023-07-08T12:29:11;41.70;5.20
578;DHT22;275;48.492;9.214;2023-07-08T12:31:41;42.30;4.60
578;DHT22;275;48.492;9.214;2023-07-08T12:34:13;40.60;5.90
578;DHT22;275;48.492;9.214;2023-07-08T12:36:42;40.60;6.10
578;DHT22;275;48.492;9.214;2023-07-08T12:39:12;42.90;4.30
578;DHT22;275;48.492;9.214;2023-07-08T12:41:42;43.80;3.70
578;DHT22;275;48.492;9.214;2023-07-08T12:44:16;43.30;4.10
578;DHT22;275;48.492;9.214;2023-07-08T12:46:47;43.70;3.60
578;DHT22;275;48.492;9.214;2023-07-08T12:49:15;43.70;3.60
578;DHT22;275;48.492;9.214;2023-07-08T12:51:43;42.50;4.50
578;DHT22;275;48.492;9.214;2023-07-08T12:54:11;41.10;5.60
578;DHT22;275;48.492;9.214;2023-07-08T12:56:40;40.80;5.80
578;DHT22;275;48.492;9.214;2023-07-08T12:59:13;38.90;7.00
578;DHT22;275;48.492;9.214;2023-07-08T13:01:41;37.70;8.30
578;DHT22;275;48.492;9.214;2023-07-08T13:04:12;37.00;9.30
578;DHT22;275;48.492;9.214;2023-07-08T13:06:39;36.10;10.30
578;DHT22;275;48.492;9.214;2023-07-08T13:09:23;36.10;10.00
578;DHT22;275;48.492;9.214;2023-07-08T13:11:51;35.00;11.30
578;DHT22;275;48.492;9.214;2023-07-08T13:14:22;34.20;11.90
578;DHT22;275;48.492;9.214;2023-07-08T13:16:50;35.20;10.70
578;DHT22;275;48.492;9.214;2023-07-08T13:19:19;36.10;10.00
578;DHT22;275;48.492;9.214;2023-07-08T13:21:47;36.60;9.20
578;DHT22;275;48.492;9.214;2023-07-08T13:24:14;36.80;9.10
578;DHT22;275;48.492;9.214;2023-07-08T13:26:46;36.60;8.90
578;DHT22;275;48.492;9.214;2023-07-08T13:29:14;36.10;8.70
578;DHT22;275;48.492;9.214;2023-07-08T13:31:47;35.90;9.00
578;DHT22;275;48.492;9.214;2023-07-08T13:34:16;36.00;9.20
578;DHT22;275;48.492;9.214;2023-07-08T13:36:46;36.80;8.90
578;DHT22;275;48.492;9.214;2023-07-08T13:39:19;37.10;8.80
578;DHT22;275;48.492;9.214;2023-07-08T13:41:47;36.40;9.30
578;DHT22;275;48.492;9.214;2023-07-08T13:44:15;35.70;10.10
578;DHT22;275;48.492;9.214;2023-07-08T13:46:46;35.60;10.10
578;DHT22;275;48.492;9.214;2023-07-08T13:49:22;35.70;9.80
578;DHT22;275;48.492;9.214;2023-07-08T13:51:51;35.70;9.60
578;DHT22;275;48.492;9.214;2023-07-08T13:54:21;35.60;8.70
578;DHT22;275;48.492;9.214;2023-07-08T13:56:49;34.60;10.20
578;DHT22;275;48.492;9.214;2023-07-08T13:59:19;34.70;9.30
578;DHT22;275;48.492;9.214;2023-07-08T14:01:47;35.10;9.20
578;DHT22;275;48.492;9.214;2023-07-08T14:04:21;35.20;9.30
578;DHT22;275;48.492;9.214;2023-07-08T14:06:50;35.30;9.20
578;DHT22;275;48.492;9.214;2023-07-08T14:09:19;34.60;9.40
578;DHT22;275;48.492;9.214;2023-07-08T14:11:47;34.40;10.40
578;DHT22;275;48.492;9.214;2023-07-08T14:14:14;34.50;10.60
578;DHT22;275;48.492;9.214;2023-07-08T14:16:43;35.10;10.00
578;DHT22;275;48.492;9.214;2023-07-08T14:19:15;35.60;9.40
578;DHT22;275;48.492;9.214;2023-07-08T14:21:43;35.30;9.30
578;DHT22;275;48.492;9.214;2023-07-08T14:24:13;34.60;9.90
578;DHT22;275;48.492;9.214;2023-07-08T14:26:42;33.90;10.70
578;DHT22;275;48.492;9.214;2023-07-08T14:29:09;33.80;11.00
578;DHT22;275;48.492;9.214;2023-07-08T14:31:36;34.40;10.50
578;DHT22;275;48.492;9.214;2023-07-08T14:34:06;34.70;10.00
578;DHT22;275;48.492;9.214;2023-07-08T14:36:34;34.40;10.40
578;DHT22;275;48.492;9.214;2023-07-08T14:39:12;35.00;9.50
578;DHT22;275;48.492;9.214;2023-07-08T14:41:39;35.00;9.50
578;DHT22;275;48.492;9.214;2023-07-08T14:44:19;35.40;9.30
578;DHT22;275;48.492;9.214;2023-07-08T14:46:46;35.10;9.50
578;DHT22;275;48.492;9.214;2023-07-08T14:49:16;35.30;9.20
578;DHT22;275;48.492;9.214;2023-07-08T14:51:43;35.00;9.40
578;DHT22;275;48.492;9.214;2023-07-08T14:54:11;34.50;9.80
578;DHT22;275;48.492;9.214;2023-07-08T14:56:38;34.50;9.80
578;DHT22;275;48.492;9.214;2023-07-08T14:59:06;33.70;10.80
578;DHT22;275;48.492;9.214;2023-07-08T15:01:37;33.50;11.30
578;DHT22;275;48.492;9.214;2023-07-08T15:04:09;33.60;11.10
578;DHT22;275;48.492;9.214;2023-07-08T15:06:36;32.90;11.90
578;DHT22;275;48.492;9.214;2023-07-08T15:09:03;33.20;11.60
578;DHT22;275;48.492;9.214;2023-07-08T15:11:32;33.60;11.20
578;DHT22;275;48.492;9.214;2023-07-08T15:13:59;33.40;11.20
578;DHT22;275;48.492;9.214;2023-07-08T15:16:27;33.20;11.30
578;DHT22;275;48.492;9.214;2023-07-08T15:18:54;33.80;10.90
578;DHT22;275;48.492;9.214;2023-07-08T15:21:20;34.00;10.60
578;DHT22;275;48.492;9.214;2023-07-08T15:23:47;34.20;10.50
578;DHT22;275;48.492;9.214;2023-07-08T15:26:14;34.30;11.10
578;DHT22;275;48.492;9.214;2023-07-08T15:28:46;34.90;10.10
578;DHT22;275;48.492;9.214;2023-07-08T15:31:14;35.40;9.50
578;DHT22;275;48.492;9.214;2023-07-08T15:33:42;35.70;9.20
578;DHT22;275;48.492;9.214;2023-07-08T15:36:10;35.40;9.30
578;DHT22;275;48.492;9.214;2023-07-08T15:38:39;35.40;9.40
578;DHT22;275;48.492;9.214;2023-07-08T15:41:10;34.30;10.50
578;DHT22;275;48.492;9.214;2023-07-08T15:43:39;34.90;10.10
578;DHT22;275;48.492;9.214;2023-07-08T15:46:08;35.10;9.70
578;DHT22;275;48.492;9.214;2023-07-08T15:48:35;35.20;9.40
578;DHT22;275;48.492;9.214;2023-07-08T15:51:02;34.70;10.20
578;DHT22;275;48.492;9.214;2023-07-08T15:53:28;34.40;10.30
578;DHT22;275;48.492;9.214;2023-07-08T15:55:55;34.00;10.80
578;DHT22;275;48.492;9.214;2023-07-08T15:58:26;33.70;11.20
578;DHT22;275;48.492;9.214;2023-07-08T16:00:54;34.30;10.50
578;DHT22;275;48.492;9.214;2023-07-08T16:03:24;34.30;10.30
578;DHT22;275;48.492;9.214;2023-07-08T16:05:52;34.80;9.90
578;DHT22;275;48.492;9.214;2023-07-08T16:08:19;34.90;9.80
578;DHT22;275;48.492;9.214;2023-07-08T16:10:50;35.00;9.90
578;DHT22;275;48.492;9.214;2023-07-08T16:13:21;34.90;10.40
578;DHT22;275;48.492;9.214;2023-07-08T16:15:49;34.60;10.40
578;DHT22;275;48.492;9.214;2023-07-08T16:18:17;34.70;10.20
578;DHT22;275;48.492;9.214;2023-07-08T16:20:45;34.40;10.50
578;DHT22;275;48.492;9.214;2023-07-08T16:23:12;34.00;10.80
578;DHT22;275;48.492;9.214;2023-07-08T16:25:41;34.00;11.00
578;DHT22;275;48.492;9.214;2023-07-08T16:28:16;34.40;10.40
578;DHT22;275;48.492;9.214;2023-07-08T16:30:43;34.60;10.30
578;DHT22;275;48.492;9.214;2023-07-08T16:33:10;34.50;10.40
578;DHT22;275;48.492;9.214;2023-07-08T16:35:37;34.30;11.00
578;DHT22;275;48.492;9.214;2023-07-08T16:38:05;34.90;10.20
578;DHT22;275;48.492;9.214;2023-07-08T16:40:32;35.20;9.90
578;DHT22;275;48.492;9.214;2023-07-08T16:42:59;34.50;10.50
578;DHT22;275;48.492;9.214;2023-07-08T16:45:26;34.90;10.30
578;DHT22;275;48.492;9.214;2023-07-08T16:47:54;35.10;10.00
578;DHT22;275;48.492;9.214;2023-07-08T16:50:24;35.10;10.10
578;DHT22;275;48.492;9.214;2023-07-08T16:52:52;34.70;11.20
578;DHT22;275;48.492;9.214;2023-07-08T16:55:20;35.00;10.70
578;DHT22;275;48.492;9.214;2023-07-08T16:57:47;34.60;11.50
578;DHT22;275;48.492;9.214;2023-07-08T17:00:18;34.50;11.70